sensor_id;sensor_type;location;lat;lon;timestamp;P1;durP1;ratioP1;P2;durP2;ratioP2
71888;SDS011;59762;49.998;14.858;2022-07-06T00:01:15;7.93;;;4.13;;
71888;SDS011;59762;49.998;14.858;2022-07-06T00:03:41;5.35;;;3.90;;
71888;SDS011;59762;49.998;14.858;2022-07-06T00:06:07;7.07;;;3.78;;
71888;SDS011;59762;49.998;14.858;2022-07-06T00:08:32;5.05;;;3.63;;
71888;SDS011;59762;49.998;14.858;2022-07-06T00:10:58;6.78;;;3.67;;
71888;SDS011;59762;49.998;14.858;2022-07-06T00:13:24;4.60;;;3.58;;
71888;SDS011;59762;49.998;14.858;2022-07-06T00:15:50;6.65;;;4.30;;
71888;SDS011;59762;49.998;14.858;2022-07-06T00:18:15;6.07;;;4.30;;
71888;SDS011;59762;49.998;14.858;2022-07-06T00:20:41;5.25;;;4.28;;
71888;SDS011;59762;49.998;14.858;2022-07-06T00:23:07;7.13;;;4.05;;
71888;SDS011;59762;49.998;14.858;2022-07-06T00:25:32;5.07;;;3.80;;
71888;SDS011;59762;49.998;14.858;2022-07-06T00:27:58;6.30;;;4.13;;
71888;SDS011;59762;49.998;14.858;2022-07-06T00:30:23;5.05;;;3.42;;
71888;SDS011;59762;49.998;14.858;2022-07-06T00:32:49;3.92;;;3.13;;
71888;SDS011;59762;49.998;14.858;2022-07-06T00:35:14;4.53;;;3.50;;
71888;SDS011;59762;49.998;14.858;2022-07-06T00:37:40;6.85;;;3.80;;
71888;SDS011;59762;49.998;14.858;2022-07-06T00:40:06;5.00;;;3.30;;
71888;SDS011;59762;49.998;14.858;2022-07-06T00:42:42;5.70;;;3.88;;
71888;SDS011;59762;49.998;14.858;2022-07-06T00:45:09;5.47;;;3.60;;
71888;SDS011;59762;49.998;14.858;2022-07-06T00:47:36;5.20;;;4.35;;
71888;SDS011;59762;49.998;14.858;2022-07-06T00:50:05;4.88;;;3.33;;
71888;SDS011;59762;49.998;14.858;2022-07-06T00:52:50;7.60;;;4.30;;
71888;SDS011;59762;49.998;14.858;2022-07-06T00:55:20;4.13;;;3.70;;
71888;SDS011;59762;49.998;14.858;2022-07-06T00:57:51;4.60;;;3.60;;
71888;SDS011;59762;49.998;14.858;2022-07-06T01:00:18;7.38;;;3.80;;
71888;SDS011;59762;49.998;14.858;2022-07-06T01:02:46;6.13;;;3.63;;
71888;SDS011;59762;49.998;14.858;2022-07-06T01:05:13;5.50;;;4.10;;
71888;SDS011;59762;49.998;14.858;2022-07-06T01:07:41;5.07;;;3.80;;
71888;SDS011;59762;49.998;14.858;2022-07-06T01:10:08;5.25;;;4.00;;
71888;SDS011;59762;49.998;14.858;2022-07-06T01:12:36;4.82;;;3.47;;
71888;SDS011;59762;49.998;14.858;2022-07-06T01:15:04;5.30;;;3.95;;
71888;SDS011;59762;49.998;14.858;2022-07-06T01:17:32;4.65;;;3.30;;
71888;SDS011;59762;49.998;14.858;2022-07-06T01:20:20;4.05;;;3.65;;
71888;SDS011;59762;49.998;14.858;2022-07-06T01:22:49;5.78;;;3.17;;
71888;SDS011;59762;49.998;14.858;2022-07-06T01:25:16;5.80;;;3.35;;
71888;SDS011;59762;49.998;14.858;2022-07-06T01:27:42;6.22;;;3.45;;
71888;SDS011;59762;49.998;14.858;2022-07-06T01:30:09;4.18;;;3.38;;
71888;SDS011;59762;49.998;14.858;2022-07-06T01:32:38;4.97;;;3.10;;
71888;SDS011;59762;49.998;14.858;2022-07-06T01:35:06;5.38;;;3.67;;
71888;SDS011;59762;49.998;14.858;2022-07-06T01:37:33;6.28;;;3.47;;
71888;SDS011;59762;49.998;14.858;2022-07-06T01:39:59;6.90;;;3.67;;
71888;SDS011;59762;49.998;14.858;2022-07-06T01:42:26;7.47;;;4.30;;
71888;SDS011;59762;49.998;14.858;2022-07-06T01:44:52;5.30;;;3.60;;
71888;SDS011;59762;49.998;14.858;2022-07-06T01:47:18;6.35;;;3.80;;
71888;SDS011;59762;49.998;14.858;2022-07-06T01:49:44;6.60;;;4.15;;
71888;SDS011;59762;49.998;14.858;2022-07-06T01:52:10;6.32;;;4.22;;
71888;SDS011;59762;49.998;14.858;2022-07-06T01:54:35;6.22;;;4.18;;
71888;SDS011;59762;49.998;14.858;2022-07-06T01:57:01;5.30;;;4.35;;
71888;SDS011;59762;49.998;14.858;2022-07-06T01:59:27;5.90;;;4.18;;
71888;SDS011;59762;49.998;14.858;2022-07-06T02:01:52;5.50;;;4.15;;
71888;SDS011;59762;49.998;14.858;2022-07-06T02:04:18;6.78;;;4.43;;
71888;SDS011;59762;49.998;14.858;2022-07-06T02:06:43;6.32;;;4.07;;
71888;SDS011;59762;49.998;14.858;2022-07-06T02:09:09;5.93;;;4.10;;
71888;SDS011;59762;49.998;14.858;2022-07-06T02:11:34;5.07;;;4.13;;
71888;SDS011;59762;49.998;14.858;2022-07-06T02:14:00;6.40;;;4.15;;
71888;SDS011;59762;49.998;14.858;2022-07-06T02:16:25;6.18;;;4.20;;
71888;SDS011;59762;49.998;14.858;2022-07-06T02:18:51;8.27;;;3.83;;
71888;SDS011;59762;49.998;14.858;2022-07-06T02:21:16;7.22;;;4.45;;
71888;SDS011;59762;49.998;14.858;2022-07-06T02:23:42;4.70;;;3.67;;
71888;SDS011;59762;49.998;14.858;2022-07-06T02:26:08;6.50;;;3.85;;
71888;SDS011;59762;49.998;14.858;2022-07-06T02:28:33;5.47;;;4.32;;
71888;SDS011;59762;49.998;14.858;2022-07-06T02:30:59;7.10;;;3.80;;
71888;SDS011;59762;49.998;14.858;2022-07-06T02:33:24;4.85;;;3.15;;
71888;SDS011;59762;49.998;14.858;2022-07-06T02:35:50;4.22;;;3.25;;
71888;SDS011;59762;49.998;14.858;2022-07-06T02:38:16;3.60;;;3.10;;
71888;SDS011;59762;49.998;14.858;2022-07-06T02:40:41;4.93;;;3.47;;
71888;SDS011;59762;49.998;14.858;2022-07-06T02:43:07;5.10;;;3.15;;
71888;SDS011;59762;49.998;14.858;2022-07-06T02:45:33;4.15;;;3.15;;
71888;SDS011;59762;49.998;14.858;2022-07-06T02:47:58;4.22;;;2.92;;
71888;SDS011;59762;49.998;14.858;2022-07-06T02:50:24;7.20;;;3.40;;
71888;SDS011;59762;49.998;14.858;2022-07-06T02:52:50;5.82;;;3.28;;
71888;SDS011;59762;49.998;14.858;2022-07-06T02:55:16;6.90;;;2.78;;
71888;SDS011;59762;49.998;14.858;2022-07-06T02:57:42;3.53;;;2.72;;
71888;SDS011;59762;49.998;14.858;2022-07-06T03:00:08;5.07;;;2.60;;
71888;SDS011;59762;49.998;14.858;2022-07-06T03:02:35;3.67;;;2.95;;
71888;SDS011;59762;49.998;14.858;2022-07-06T03:05:01;3.42;;;2.60;;
71888;SDS011;59762;49.998;14.858;2022-07-06T03:07:27;3.90;;;2.97;;
71888;SDS011;59762;49.998;14.858;2022-07-06T03:09:53;5.75;;;3.03;;
71888;SDS011;59762;49.998;14.858;2022-07-06T03:12:18;4.63;;;2.80;;
71888;SDS011;59762;49.998;14.858;2022-07-06T03:14:44;4.85;;;3.03;;
71888;SDS011;59762;49.998;14.858;2022-07-06T03:17:10;4.28;;;3.15;;
71888;SDS011;59762;49.998;14.858;2022-07-06T03:19:35;4.15;;;2.90;;
71888;SDS011;59762;49.998;14.858;2022-07-06T03:22:01;4.60;;;3.17;;
71888;SDS011;59762;49.998;14.858;2022-07-06T03:24:27;5.97;;;3.13;;
71888;SDS011;59762;49.998;14.858;2022-07-06T03:26:52;6.85;;;2.80;;
71888;SDS011;59762;49.998;14.858;2022-07-06T03:29:18;2.95;;;2.42;;
71888;SDS011;59762;49.998;14.858;2022-07-06T03:31:44;4.22;;;2.55;;
71888;SDS011;59762;49.998;14.858;2022-07-06T03:34:09;4.80;;;2.30;;
71888;SDS011;59762;49.998;14.858;2022-07-06T03:36:35;5.25;;;2.00;;
71888;SDS011;59762;49.998;14.858;2022-07-06T03:39:00;2.58;;;2.33;;
71888;SDS011;59762;49.998;14.858;2022-07-06T03:41:26;3.05;;;2.30;;
71888;SDS011;59762;49.998;14.858;2022-07-06T03:43:52;3.05;;;2.75;;
71888;SDS011;59762;49.998;14.858;2022-07-06T03:46:17;3.80;;;2.20;;
71888;SDS011;59762;49.998;14.858;2022-07-06T03:48:43;5.35;;;2.67;;
71888;SDS011;59762;49.998;14.858;2022-07-06T03:51:08;3.17;;;2.53;;
71888;SDS011;59762;49.998;14.858;2022-07-06T03:53:35;2.63;;;2.20;;
71888;SDS011;59762;49.998;14.858;2022-07-06T03:56:01;4.32;;;2.30;;
71888;SDS011;59762;49.998;14.858;2022-07-06T03:58:45;4.05;;;2.40;;
71888;SDS011;59762;49.998;14.858;2022-07-06T04:01:10;3.38;;;2.47;;
71888;SDS011;59762;49.998;14.858;2022-07-06T04:03:36;2.92;;;2.50;;
71888;SDS011;59762;49.998;14.858;2022-07-06T04:06:02;2.47;;;2.25;;
71888;SDS011;59762;49.998;14.858;2022-07-06T04:08:27;3.30;;;2.55;;
71888;SDS011;59762;49.998;14.858;2022-07-06T04:10:53;3.38;;;2.38;;
71888;SDS011;59762;49.998;14.858;2022-07-06T04:13:18;2.75;;;2.00;;
71888;SDS011;59762;49.998;14.858;2022-07-06T04:15:44;2.38;;;2.17;;
71888;SDS011;59762;49.998;14.858;2022-07-06T04:18:10;3.22;;;2.00;;
71888;SDS011;59762;49.998;14.858;2022-07-06T04:20:35;2.55;;;2.00;;
71888;SDS011;59762;49.998;14.858;2022-07-06T04:23:01;4.47;;;1.90;;
71888;SDS011;59762;49.998;14.858;2022-07-06T04:25:27;2.72;;;1.90;;
71888;SDS011;59762;49.998;14.858;2022-07-06T04:27:53;1.95;;;1.80;;
71888;SDS011;59762;49.998;14.858;2022-07-06T04:30:18;3.08;;;1.80;;
71888;SDS011;59762;49.998;14.858;2022-07-06T04:32:44;3.88;;;1.85;;
71888;SDS011;59762;49.998;14.858;2022-07-06T04:35:09;3.22;;;1.98;;
71888;SDS011;59762;49.998;14.858;2022-07-06T04:37:35;3.28;;;2.15;;
71888;SDS011;59762;49.998;14.858;2022-07-06T04:40:01;2.17;;;1.80;;
71888;SDS011;59762;49.998;14.858;2022-07-06T04:42:26;1.73;;;1.63;;
71888;SDS011;59762;49.998;14.858;2022-07-06T04:44:52;2.95;;;1.92;;
71888;SDS011;59762;49.998;14.858;2022-07-06T04:47:17;1.75;;;1.60;;
71888;SDS011;59762;49.998;14.858;2022-07-06T04:49:43;2.50;;;2.00;;
71888;SDS011;59762;49.998;14.858;2022-07-06T04:52:09;2.20;;;2.00;;
71888;SDS011;59762;49.998;14.858;2022-07-06T04:54:34;3.22;;;2.15;;
71888;SDS011;59762;49.998;14.858;2022-07-06T04:57:00;2.78;;;1.80;;
71888;SDS011;59762;49.998;14.858;2022-07-06T04:59:26;5.97;;;1.60;;
71888;SDS011;59762;49.998;14.858;2022-07-06T05:01:51;2.22;;;1.85;;
71888;SDS011;59762;49.998;14.858;2022-07-06T05:04:17;1.90;;;1.60;;
71888;SDS011;59762;49.998;14.858;2022-07-06T05:06:46;3.55;;;1.50;;
71888;SDS011;59762;49.998;14.858;2022-07-06T05:09:12;1.50;;;1.33;;
71888;SDS011;59762;49.998;14.858;2022-07-06T05:11:38;1.73;;;1.38;;
71888;SDS011;59762;49.998;14.858;2022-07-06T05:14:04;2.03;;;1.20;;
71888;SDS011;59762;49.998;14.858;2022-07-06T05:16:30;2.15;;;1.30;;
71888;SDS011;59762;49.998;14.858;2022-07-06T05:18:56;3.17;;;1.63;;
71888;SDS011;59762;49.998;14.858;2022-07-06T05:21:21;3.92;;;1.48;;
71888;SDS011;59762;49.998;14.858;2022-07-06T05:23:47;1.30;;;1.15;;
71888;SDS011;59762;49.998;14.858;2022-07-06T05:26:12;1.17;;;1.08;;
71888;SDS011;59762;49.998;14.858;2022-07-06T05:28:38;1.30;;;1.20;;
71888;SDS011;59762;49.998;14.858;2022-07-06T05:31:03;2.17;;;1.48;;
71888;SDS011;59762;49.998;14.858;2022-07-06T05:33:29;3.90;;;1.38;;
71888;SDS011;59762;49.998;14.858;2022-07-06T05:35:55;1.50;;;1.30;;
71888;SDS011;59762;49.998;14.858;2022-07-06T05:38:20;1.80;;;1.55;;
71888;SDS011;59762;49.998;14.858;2022-07-06T05:40:47;2.33;;;1.70;;
71888;SDS011;59762;49.998;14.858;2022-07-06T05:43:13;2.00;;;1.60;;
71888;SDS011;59762;49.998;14.858;2022-07-06T05:45:38;1.73;;;1.52;;
71888;SDS011;59762;49.998;14.858;2022-07-06T05:48:04;1.70;;;1.45;;
71888;SDS011;59762;49.998;14.858;2022-07-06T05:50:48;3.63;;;1.55;;
71888;SDS011;59762;49.998;14.858;2022-07-06T05:53:13;3.10;;;1.88;;
71888;SDS011;59762;49.998;14.858;2022-07-06T05:55:39;3.85;;;2.00;;
71888;SDS011;59762;49.998;14.858;2022-07-06T05:58:05;1.90;;;1.70;;
71888;SDS011;59762;49.998;14.858;2022-07-06T06:00:30;3.38;;;1.92;;
71888;SDS011;59762;49.998;14.858;2022-07-06T06:02:56;2.10;;;1.80;;
71888;SDS011;59762;49.998;14.858;2022-07-06T06:05:23;1.98;;;1.77;;
71888;SDS011;59762;49.998;14.858;2022-07-06T06:07:50;6.32;;;1.80;;
71888;SDS011;59762;49.998;14.858;2022-07-06T06:10:16;2.50;;;1.85;;
71888;SDS011;59762;49.998;14.858;2022-07-06T06:12:43;2.80;;;1.60;;
71888;SDS011;59762;49.998;14.858;2022-07-06T06:15:09;2.47;;;1.50;;
71888;SDS011;59762;49.998;14.858;2022-07-06T06:17:36;2.22;;;1.52;;
71888;SDS011;59762;49.998;14.858;2022-07-06T06:20:03;2.10;;;1.50;;
71888;SDS011;59762;49.998;14.858;2022-07-06T06:22:49;1.70;;;1.60;;
71888;SDS011;59762;49.998;14.858;2022-07-06T06:25:17;2.17;;;1.63;;
71888;SDS011;59762;49.998;14.858;2022-07-06T06:27:44;2.17;;;1.45;;
71888;SDS011;59762;49.998;14.858;2022-07-06T06:30:09;3.25;;;1.75;;
71888;SDS011;59762;49.998;14.858;2022-07-06T06:32:36;2.78;;;1.45;;
71888;SDS011;59762;49.998;14.858;2022-07-06T06:35:02;2.30;;;1.40;;
71888;SDS011;59762;49.998;14.858;2022-07-06T06:37:28;2.15;;;1.33;;
71888;SDS011;59762;49.998;14.858;2022-07-06T06:39:53;1.45;;;1.35;;
71888;SDS011;59762;49.998;14.858;2022-07-06T06:42:19;2.83;;;1.40;;
71888;SDS011;59762;49.998;14.858;2022-07-06T06:44:44;1.70;;;1.23;;
71888;SDS011;59762;49.998;14.858;2022-07-06T06:47:10;5.10;;;1.38;;
71888;SDS011;59762;49.998;14.858;2022-07-06T06:49:35;3.80;;;1.40;;
71888;SDS011;59762;49.998;14.858;2022-07-06T06:52:01;1.17;;;1.00;;
71888;SDS011;59762;49.998;14.858;2022-07-06T06:54:26;1.60;;;1.30;;
71888;SDS011;59762;49.998;14.858;2022-07-06T06:56:52;1.67;;;1.20;;
71888;SDS011;59762;49.998;14.858;2022-07-06T06:59:17;2.50;;;1.33;;
71888;SDS011;59762;49.998;14.858;2022-07-06T07:01:43;2.33;;;1.50;;
71888;SDS011;59762;49.998;14.858;2022-07-06T07:04:08;3.55;;;1.38;;
71888;SDS011;59762;49.998;14.858;2022-07-06T07:06:34;3.90;;;1.45;;
71888;SDS011;59762;49.998;14.858;2022-07-06T07:08:59;1.45;;;1.35;;
71888;SDS011;59762;49.998;14.858;2022-07-06T07:11:25;1.52;;;1.20;;
71888;SDS011;59762;49.998;14.858;2022-07-06T07:13:51;3.00;;;1.40;;
71888;SDS011;59762;49.998;14.858;2022-07-06T07:16:17;1.83;;;1.38;;
71888;SDS011;59762;49.998;14.858;2022-07-06T07:18:42;1.73;;;1.17;;
71888;SDS011;59762;49.998;14.858;2022-07-06T07:21:08;1.40;;;1.15;;
71888;SDS011;59762;49.998;14.858;2022-07-06T07:23:33;1.05;;;0.95;;
71888;SDS011;59762;49.998;14.858;2022-07-06T07:25:59;3.00;;;1.27;;
71888;SDS011;59762;49.998;14.858;2022-07-06T07:28:25;2.20;;;1.30;;
71888;SDS011;59762;49.998;14.858;2022-07-06T07:30:50;1.98;;;1.35;;
71888;SDS011;59762;49.998;14.858;2022-07-06T07:33:16;1.63;;;1.30;;
71888;SDS011;59762;49.998;14.858;2022-07-06T07:35:41;2.53;;;1.65;;
71888;SDS011;59762;49.998;14.858;2022-07-06T07:38:07;1.95;;;1.30;;
71888;SDS011;59762;49.998;14.858;2022-07-06T07:40:32;1.38;;;1.27;;
71888;SDS011;59762;49.998;14.858;2022-07-06T07:43:00;1.30;;;1.20;;
71888;SDS011;59762;49.998;14.858;2022-07-06T07:45:25;3.78;;;1.25;;
71888;SDS011;59762;49.998;14.858;2022-07-06T07:47:51;2.30;;;1.17;;
71888;SDS011;59762;49.998;14.858;2022-07-06T07:50:17;1.48;;;1.33;;
71888;SDS011;59762;49.998;14.858;2022-07-06T07:52:43;2.00;;;1.25;;
71888;SDS011;59762;49.998;14.858;2022-07-06T07:55:09;1.58;;;1.33;;
71888;SDS011;59762;49.998;14.858;2022-07-06T07:57:35;1.63;;;1.48;;
71888;SDS011;59762;49.998;14.858;2022-07-06T08:00:01;3.55;;;1.48;;
71888;SDS011;59762;49.998;14.858;2022-07-06T08:02:27;1.80;;;1.17;;
71888;SDS011;59762;49.998;14.858;2022-07-06T08:04:52;2.92;;;1.38;;
71888;SDS011;59762;49.998;14.858;2022-07-06T08:07:18;1.30;;;1.20;;
71888;SDS011;59762;49.998;14.858;2022-07-06T08:09:43;2.95;;;1.10;;
71888;SDS011;59762;49.998;14.858;2022-07-06T08:12:09;1.98;;;1.30;;
71888;SDS011;59762;49.998;14.858;2022-07-06T08:14:35;1.30;;;1.20;;
71888;SDS011;59762;49.998;14.858;2022-07-06T08:17:02;2.38;;;1.20;;
71888;SDS011;59762;49.998;14.858;2022-07-06T08:19:28;1.50;;;1.13;;
71888;SDS011;59762;49.998;14.858;2022-07-06T08:21:55;1.40;;;1.30;;
71888;SDS011;59762;49.998;14.858;2022-07-06T08:24:22;1.42;;;1.20;;
71888;SDS011;59762;49.998;14.858;2022-07-06T08:26:47;1.73;;;1.40;;
71888;SDS011;59762;49.998;14.858;2022-07-06T08:29:13;4.47;;;1.30;;
71888;SDS011;59762;49.998;14.858;2022-07-06T08:31:38;2.00;;;1.38;;
71888;SDS011;59762;49.998;14.858;2022-07-06T08:34:04;1.30;;;1.20;;
71888;SDS011;59762;49.998;14.858;2022-07-06T08:36:30;1.20;;;1.10;;
71888;SDS011;59762;49.998;14.858;2022-07-06T08:38:55;1.60;;;1.50;;
71888;SDS011;59762;49.998;14.858;2022-07-06T08:41:21;3.03;;;1.20;;
71888;SDS011;59762;49.998;14.858;2022-07-06T08:43:49;2.88;;;1.17;;
71888;SDS011;59762;49.998;14.858;2022-07-06T08:46:16;3.75;;;1.38;;
71888;SDS011;59762;49.998;14.858;2022-07-06T08:48:41;3.35;;;1.00;;
71888;SDS011;59762;49.998;14.858;2022-07-06T08:51:07;2.40;;;1.00;;
71888;SDS011;59762;49.998;14.858;2022-07-06T08:53:33;2.15;;;1.20;;
71888;SDS011;59762;49.998;14.858;2022-07-06T08:56:00;1.45;;;1.10;;
71888;SDS011;59762;49.998;14.858;2022-07-06T08:58:26;1.40;;;0.98;;
71888;SDS011;59762;49.998;14.858;2022-07-06T09:00:56;1.30;;;1.05;;
71888;SDS011;59762;49.998;14.858;2022-07-06T09:03:23;2.03;;;1.10;;
71888;SDS011;59762;49.998;14.858;2022-07-06T09:05:50;1.17;;;1.08;;
71888;SDS011;59762;49.998;14.858;2022-07-06T09:08:18;0.98;;;0.75;;
71888;SDS011;59762;49.998;14.858;2022-07-06T09:10:44;2.08;;;1.13;;
71888;SDS011;59762;49.998;14.858;2022-07-06T09:13:10;1.23;;;1.10;;
71888;SDS011;59762;49.998;14.858;2022-07-06T09:15:36;3.17;;;0.82;;
71888;SDS011;59762;49.998;14.858;2022-07-06T09:18:06;1.52;;;1.00;;
71888;SDS011;59762;49.998;14.858;2022-07-06T09:20:32;1.75;;;1.00;;
71888;SDS011;59762;49.998;14.858;2022-07-06T09:22:58;2.15;;;1.10;;
71888;SDS011;59762;49.998;14.858;2022-07-06T09:25:26;3.95;;;0.88;;
71888;SDS011;59762;49.998;14.858;2022-07-06T09:27:52;1.08;;;0.90;;
71888;SDS011;59762;49.998;14.858;2022-07-06T09:30:22;1.70;;;1.08;;
71888;SDS011;59762;49.998;14.858;2022-07-06T09:32:49;1.50;;;1.17;;
71888;SDS011;59762;49.998;14.858;2022-07-06T09:38:02;1.05;;;0.93;;
71888;SDS011;59762;49.998;14.858;2022-07-06T09:40:28;1.10;;;1.00;;
71888;SDS011;59762;49.998;14.858;2022-07-06T09:45:40;2.70;;;1.30;;
71888;SDS011;59762;49.998;14.858;2022-07-06T09:48:17;1.83;;;1.10;;
71888;SDS011;59762;49.998;14.858;2022-07-06T09:50:47;1.30;;;1.17;;
71888;SDS011;59762;49.998;14.858;2022-07-06T09:53:16;1.58;;;1.00;;
71888;SDS011;59762;49.998;14.858;2022-07-06T09:55:43;1.55;;;1.15;;
71888;SDS011;59762;49.998;14.858;2022-07-06T09:58:10;1.77;;;1.38;;
71888;SDS011;59762;49.998;14.858;2022-07-06T10:00:36;2.25;;;1.10;;
71888;SDS011;59762;49.998;14.858;2022-07-06T10:03:01;2.17;;;1.20;;
71888;SDS011;59762;49.998;14.858;2022-07-06T10:05:27;1.55;;;1.30;;
71888;SDS011;59762;49.998;14.858;2022-07-06T10:07:58;1.50;;;1.05;;
71888;SDS011;59762;49.998;14.858;2022-07-06T10:10:25;1.10;;;1.00;;
71888;SDS011;59762;49.998;14.858;2022-07-06T10:12:54;2.70;;;1.02;;
71888;SDS011;59762;49.998;14.858;2022-07-06T10:15:26;1.70;;;1.08;;
71888;SDS011;59762;49.998;14.858;2022-07-06T10:17:56;1.55;;;1.05;;
71888;SDS011;59762;49.998;14.858;2022-07-06T10:20:22;1.60;;;1.13;;
71888;SDS011;59762;49.998;14.858;2022-07-06T10:22:48;1.60;;;1.10;;
71888;SDS011;59762;49.998;14.858;2022-07-06T10:25:18;1.58;;;1.13;;
71888;SDS011;59762;49.998;14.858;2022-07-06T10:27:44;1.70;;;1.20;;
71888;SDS011;59762;49.998;14.858;2022-07-06T10:30:11;2.03;;;1.27;;
71888;SDS011;59762;49.998;14.858;2022-07-06T10:32:37;2.03;;;1.30;;
71888;SDS011;59762;49.998;14.858;2022-07-06T10:35:04;1.30;;;1.20;;
71888;SDS011;59762;49.998;14.858;2022-07-06T10:37:31;3.05;;;1.38;;
71888;SDS011;59762;49.998;14.858;2022-07-06T10:39:59;2.10;;;1.30;;
71888;SDS011;59762;49.998;14.858;2022-07-06T10:45:20;1.65;;;1.30;;
71888;SDS011;59762;49.998;14.858;2022-07-06T10:50:36;7.22;;;1.65;;
71888;SDS011;59762;49.998;14.858;2022-07-06T10:53:29;2.67;;;1.35;;
71888;SDS011;59762;49.998;14.858;2022-07-06T10:56:01;1.73;;;1.17;;
71888;SDS011;59762;49.998;14.858;2022-07-06T11:01:01;3.08;;;1.30;;
71888;SDS011;59762;49.998;14.858;2022-07-06T11:03:38;2.03;;;1.00;;
71888;SDS011;59762;49.998;14.858;2022-07-06T11:13:51;1.30;;;1.20;;
71888;SDS011;59762;49.998;14.858;2022-07-06T11:16:18;3.45;;;1.52;;
71888;SDS011;59762;49.998;14.858;2022-07-06T11:18:59;2.53;;;1.30;;
71888;SDS011;59762;49.998;14.858;2022-07-06T11:24:03;2.15;;;1.30;;
71888;SDS011;59762;49.998;14.858;2022-07-06T11:26:31;3.45;;;1.45;;
71888;SDS011;59762;49.998;14.858;2022-07-06T11:28:58;1.38;;;1.27;;
71888;SDS011;59762;49.998;14.858;2022-07-06T11:31:27;2.38;;;1.35;;
71888;SDS011;59762;49.998;14.858;2022-07-06T11:33:52;1.48;;;1.30;;
71888;SDS011;59762;49.998;14.858;2022-07-06T11:36:19;2.05;;;1.30;;
71888;SDS011;59762;49.998;14.858;2022-07-06T11:38:46;2.53;;;1.55;;
71888;SDS011;59762;49.998;14.858;2022-07-06T11:41:14;2.15;;;1.63;;
71888;SDS011;59762;49.998;14.858;2022-07-06T11:43:41;1.40;;;1.30;;
71888;SDS011;59762;49.998;14.858;2022-07-06T11:46:19;1.35;;;1.25;;
71888;SDS011;59762;49.998;14.858;2022-07-06T11:48:53;1.75;;;1.35;;
71888;SDS011;59762;49.998;14.858;2022-07-06T11:51:28;3.38;;;1.60;;
71888;SDS011;59762;49.998;14.858;2022-07-06T11:53:56;2.53;;;1.50;;
71888;SDS011;59762;49.998;14.858;2022-07-06T11:56:24;2.00;;;1.40;;
71888;SDS011;59762;49.998;14.858;2022-07-06T11:58:55;3.20;;;1.50;;
71888;SDS011;59762;49.998;14.858;2022-07-06T12:01:23;2.00;;;1.55;;
71888;SDS011;59762;49.998;14.858;2022-07-06T12:03:50;1.77;;;1.67;;
71888;SDS011;59762;49.998;14.858;2022-07-06T12:06:21;2.75;;;1.52;;
71888;SDS011;59762;49.998;14.858;2022-07-06T12:08:48;1.70;;;1.60;;
71888;SDS011;59762;49.998;14.858;2022-07-06T12:13:56;4.18;;;1.70;;
71888;SDS011;59762;49.998;14.858;2022-07-06T12:16:38;1.67;;;1.58;;
71888;SDS011;59762;49.998;14.858;2022-07-06T12:19:05;2.63;;;1.60;;
71888;SDS011;59762;49.998;14.858;2022-07-06T12:21:32;1.85;;;1.67;;
71888;SDS011;59762;49.998;14.858;2022-07-06T12:23:59;2.38;;;1.90;;
71888;SDS011;59762;49.998;14.858;2022-07-06T12:26:25;2.42;;;2.17;;
71888;SDS011;59762;49.998;14.858;2022-07-06T12:31:42;3.08;;;2.13;;
71888;SDS011;59762;49.998;14.858;2022-07-06T12:34:19;5.95;;;2.22;;
71888;SDS011;59762;49.998;14.858;2022-07-06T12:36:50;3.83;;;2.40;;
71888;SDS011;59762;49.998;14.858;2022-07-06T12:39:24;3.17;;;2.00;;
71888;SDS011;59762;49.998;14.858;2022-07-06T12:41:55;2.45;;;2.13;;
71888;SDS011;59762;49.998;14.858;2022-07-06T12:44:27;2.28;;;1.70;;
71888;SDS011;59762;49.998;14.858;2022-07-06T12:47:06;8.60;;;2.30;;
71888;SDS011;59762;49.998;14.858;2022-07-06T12:49:34;3.65;;;2.25;;
71888;SDS011;59762;49.998;14.858;2022-07-06T12:54:33;3.05;;;1.92;;
71888;SDS011;59762;49.998;14.858;2022-07-06T13:05:05;1.65;;;1.55;;
71888;SDS011;59762;49.998;14.858;2022-07-06T13:07:32;1.70;;;1.30;;
71888;SDS011;59762;49.998;14.858;2022-07-06T13:10:01;2.58;;;1.35;;
71888;SDS011;59762;49.998;14.858;2022-07-06T13:12:31;2.67;;;1.95;;
71888;SDS011;59762;49.998;14.858;2022-07-06T13:14:57;1.70;;;1.60;;
71888;SDS011;59762;49.998;14.858;2022-07-06T13:17:23;3.63;;;2.03;;
71888;SDS011;59762;49.998;14.858;2022-07-06T13:19:49;3.33;;;1.70;;
71888;SDS011;59762;49.998;14.858;2022-07-06T13:22:15;1.55;;;1.45;;
71888;SDS011;59762;49.998;14.858;2022-07-06T13:24:41;5.95;;;1.67;;
71888;SDS011;59762;49.998;14.858;2022-07-06T13:27:07;2.55;;;1.98;;
71888;SDS011;59762;49.998;14.858;2022-07-06T13:29:34;3.28;;;1.50;;
71888;SDS011;59762;49.998;14.858;2022-07-06T13:31:59;1.65;;;1.35;;
71888;SDS011;59762;49.998;14.858;2022-07-06T13:34:25;1.98;;;1.50;;
71888;SDS011;59762;49.998;14.858;2022-07-06T13:36:51;5.70;;;1.45;;
71888;SDS011;59762;49.998;14.858;2022-07-06T13:39:17;1.92;;;1.63;;
71888;SDS011;59762;49.998;14.858;2022-07-06T13:41:44;2.60;;;1.67;;
71888;SDS011;59762;49.998;14.858;2022-07-06T13:44:09;2.38;;;1.50;;
71888;SDS011;59762;49.998;14.858;2022-07-06T13:46:37;1.70;;;1.60;;
71888;SDS011;59762;49.998;14.858;2022-07-06T13:49:04;7.40;;;1.77;;
71888;SDS011;59762;49.998;14.858;2022-07-06T13:51:30;2.17;;;1.67;;
71888;SDS011;59762;49.998;14.858;2022-07-06T13:54:00;3.42;;;1.80;;
71888;SDS011;59762;49.998;14.858;2022-07-06T13:56:27;3.28;;;2.05;;
71888;SDS011;59762;49.998;14.858;2022-07-06T13:58:53;2.50;;;1.70;;
71888;SDS011;59762;49.998;14.858;2022-07-06T14:01:19;2.78;;;1.65;;
71888;SDS011;59762;49.998;14.858;2022-07-06T14:03:45;2.08;;;1.70;;
71888;SDS011;59762;49.998;14.858;2022-07-06T14:06:10;2.53;;;1.60;;
71888;SDS011;59762;49.998;14.858;2022-07-06T14:08:37;4.63;;;2.08;;
71888;SDS011;59762;49.998;14.858;2022-07-06T14:11:04;3.70;;;1.92;;
71888;SDS011;59762;49.998;14.858;2022-07-06T14:13:30;3.95;;;1.70;;
71888;SDS011;59762;49.998;14.858;2022-07-06T14:15:56;3.55;;;1.90;;
71888;SDS011;59762;49.998;14.858;2022-07-06T14:18:22;2.28;;;1.90;;
71888;SDS011;59762;49.998;14.858;2022-07-06T14:20:51;3.20;;;1.65;;
71888;SDS011;59762;49.998;14.858;2022-07-06T14:23:17;1.95;;;1.80;;
71888;SDS011;59762;49.998;14.858;2022-07-06T14:25:44;2.25;;;1.45;;
71888;SDS011;59762;49.998;14.858;2022-07-06T14:28:10;1.70;;;1.50;;
71888;SDS011;59762;49.998;14.858;2022-07-06T14:30:38;2.08;;;1.88;;
71888;SDS011;59762;49.998;14.858;2022-07-06T14:33:08;2.42;;;1.92;;
71888;SDS011;59762;49.998;14.858;2022-07-06T14:35:35;1.73;;;1.63;;
71888;SDS011;59762;49.998;14.858;2022-07-06T14:38:04;2.90;;;1.58;;
71888;SDS011;59762;49.998;14.858;2022-07-06T14:40:31;2.13;;;1.30;;
71888;SDS011;59762;49.998;14.858;2022-07-06T14:42:57;2.30;;;1.67;;
71888;SDS011;59762;49.998;14.858;2022-07-06T14:45:23;2.95;;;1.70;;
71888;SDS011;59762;49.998;14.858;2022-07-06T14:47:49;1.52;;;1.23;;
71888;SDS011;59762;49.998;14.858;2022-07-06T14:50:15;1.90;;;1.00;;
71888;SDS011;59762;49.998;14.858;2022-07-06T14:52:40;1.92;;;1.30;;
71888;SDS011;59762;49.998;14.858;2022-07-06T14:55:06;2.25;;;1.42;;
71888;SDS011;59762;49.998;14.858;2022-07-06T14:57:32;1.52;;;1.15;;
71888;SDS011;59762;49.998;14.858;2022-07-06T14:59:58;1.90;;;1.42;;
71888;SDS011;59762;49.998;14.858;2022-07-06T15:02:23;3.13;;;1.27;;
71888;SDS011;59762;49.998;14.858;2022-07-06T15:04:49;4.13;;;1.17;;
71888;SDS011;59762;49.998;14.858;2022-07-06T15:07:14;1.25;;;1.15;;
71888;SDS011;59762;49.998;14.858;2022-07-06T15:09:40;2.53;;;1.20;;
71888;SDS011;59762;49.998;14.858;2022-07-06T15:12:06;3.38;;;1.40;;